地図

経路データ

SID SEASON NUMBER BASIN SUBBASIN NAME ISO_TIME NATURE LAT LON WMO_WIND WMO_PRES WMO_AGENCY TRACK_TYPE DIST2LAND LANDFALL IFLAG USA_AGENCY USA_ATCF_ID USA_LAT USA_LON USA_RECORD USA_STATUS USA_WIND USA_PRES USA_SSHS USA_R34_NE USA_R34_SE USA_R34_SW USA_R34_NW USA_R50_NE USA_R50_SE USA_R50_SW USA_R50_NW USA_R64_NE USA_R64_SE USA_R64_SW USA_R64_NW USA_POCI USA_ROCI USA_RMW USA_EYE TOKYO_LAT TOKYO_LON TOKYO_GRADE TOKYO_WIND TOKYO_PRES TOKYO_R50_DIR TOKYO_R50_LONG TOKYO_R50_SHORT TOKYO_R30_DIR TOKYO_R30_LONG TOKYO_R30_SHORT TOKYO_LAND CMA_LAT CMA_LON CMA_CAT CMA_WIND CMA_PRES HKO_LAT HKO_LON HKO_CAT HKO_WIND HKO_PRES NEWDELHI_LAT NEWDELHI_LON NEWDELHI_GRADE NEWDELHI_WIND NEWDELHI_PRES NEWDELHI_CI NEWDELHI_DP NEWDELHI_POCI REUNION_LAT REUNION_LON REUNION_TYPE REUNION_WIND REUNION_PRES REUNION_TNUM REUNION_CI REUNION_RMW REUNION_R34_NE REUNION_R34_SE REUNION_R34_SW REUNION_R34_NW REUNION_R50_NE REUNION_R50_SE REUNION_R50_SW REUNION_R50_NW REUNION_R64_NE REUNION_R64_SE REUNION_R64_SW REUNION_R64_NW BOM_LAT BOM_LON BOM_TYPE BOM_WIND BOM_PRES BOM_TNUM BOM_CI BOM_RMW BOM_R34_NE BOM_R34_SE BOM_R34_SW BOM_R34_NW BOM_R50_NE BOM_R50_SE BOM_R50_SW BOM_R50_NW BOM_R64_NE BOM_R64_SE BOM_R64_SW BOM_R64_NW BOM_ROCI BOM_POCI BOM_EYE BOM_POS_METHOD BOM_PRES_METHOD NADI_LAT NADI_LON NADI_CAT NADI_WIND NADI_PRES WELLINGTON_LAT WELLINGTON_LON WELLINGTON_WIND WELLINGTON_PRES DS824_LAT DS824_LON DS824_STAGE DS824_WIND DS824_PRES TD9636_LAT TD9636_LON TD9636_STAGE TD9636_WIND TD9636_PRES TD9635_LAT TD9635_LON TD9635_WIND TD9635_PRES TD9635_ROCI NEUMANN_LAT NEUMANN_LON NEUMANN_CLASS NEUMANN_WIND NEUMANN_PRES MLC_LAT MLC_LON MLC_CLASS MLC_WIND MLC_PRES USA_GUST BOM_GUST BOM_GUST_PER REUNION_GUST REUNION_GUST_PER USA_SEAHGT USA_SEARAD_NE USA_SEARAD_SE USA_SEARAD_SW USA_SEARAD_NW STORM_SPEED STORM_DIR
1949192N19142 1949 42 WP MM FAYE 1949-07-10 18:00:00 TS 19.1000 141.800 main 1704 1694 __O___________ -1 19.1000 141.800 0 1006 7 279
1949192N19142 1949 42 WP MM FAYE 1949-07-10 21:00:00 TS 19.1526 141.450 main 1683 1670 __P___________ -1 19.1526 141.450 0 1004 7 279
1949192N19142 1949 42 WP MM FAYE 1949-07-11 00:00:00 TS 19.2000 141.100 main 1670 1656 __O___________ -1 19.2000 141.100 1 29 1002 7 278
1949192N19142 1949 42 WP MM FAYE 1949-07-11 03:00:00 TS 19.2424 140.750 main 1650 1624 __P___________ -1 19.2424 140.750 1 33 1000 7 279
1949192N19142 1949 42 WP MM FAYE 1949-07-11 06:00:00 TS 19.3000 140.400 main 1624 1598 __O___________ -1 19.3000 140.400 2 38 998 7 283
1949192N19142 1949 42 WP MM FAYE 1949-07-11 09:00:00 TS 19.3925 140.043 main 1592 1567 __P___________ -1 19.3925 140.043 2 38 996 7 287
1949192N19142 1949 42 WP MM FAYE 1949-07-11 12:00:00 TS 19.5000 139.700 main 1567 1541 __O___________ -1 19.5000 139.700 2 38 994 7 289
1949192N19142 1949 42 WP MM FAYE 1949-07-11 15:00:00 TS 19.6074 139.393 main 1541 1516 __P___________ -1 19.6074 139.393 2 43 992 6 289
1949192N19142 1949 42 WP MM FAYE 1949-07-11 18:00:00 TS 19.7000 139.100 main 1516 1500 __O___________ -1 19.7000 139.100 3 48 990 6 284
1949192N19142 1949 42 WP MM FAYE 1949-07-11 21:00:00 TS 19.7500 138.785 main 1490 1474 __P___________ -1 19.7500 138.785 3 48 989 6 280
1949192N19142 1949 42 WP MM FAYE 1949-07-12 00:00:00 TS 19.8000 138.500 main 1474 1454 __O___________ -1 19.8000 138.500 3 48 988 5 288
1949192N19142 1949 42 WP MM FAYE 1949-07-12 03:00:00 TS 19.8999 138.285 main 1454 1441 __P___________ -1 19.8999 138.285 3 53 986 5 25
1949192N19142 1949 42 WP MM FAYE 1949-07-12 06:00:00 TS 20.2143 138.700 main 1447 1432 O_O______O_O__ jtwc_wp WP041949 20.5000 139.500 30 -1 20.0000 138.100 3 58 985 20.5000 139.500 TC 30 20.5000 139.500 30 1003 120 5 37
1949192N19142 1949 42 WP MM FAYE 1949-07-12 09:00:00 TS 20.3231 138.625 main 1432 1411 P_P______P_P__ WP041949 20.5052 139.108 35 0 20.0500 137.900 3 58 984 20.5052 139.108 TC 35 20.5052 139.108 35 1001 120 3 303
1949192N19142 1949 42 WP MM FAYE 1949-07-12 12:00:00 TS 20.3857 138.414 main 1411 1395 O_O______OOO__ jtwc_wp WP041949 20.5000 138.700 40 0 20.1000 137.700 3 58 983 20.5000 138.700 TC 40 20.5000 138.700 2 40 20.5000 138.700 40 999 120 5 282
1949192N19142 1949 42 WP MM FAYE 1949-07-12 15:00:00 TS 20.4260 138.092 main 1395 1365 P_P______PPP__ WP041949 20.4849 138.265 47 0 20.1925 137.507 3 63 981 20.4849 138.265 TC 47 20.5400 138.222 2 47 20.4849 138.265 47 996 150 7 277
1949192N19142 1949 42 WP MM FAYE 1949-07-12 18:00:00 TS 20.4711 137.686 main 1365 1345 O_O______OPO__ jtwc_wp WP041949 20.5000 137.800 55 0 20.3000 137.300 4 68 980 20.5000 137.800 TC 55 20.5835 137.745 2 55 20.5000 137.800 55 993 180 8 279
1949192N19142 1949 42 WP MM FAYE 1949-07-12 21:00:00 TS 20.5505 137.256 main 1335 1301 P_P______PPP__ WP041949 20.5774 137.308 62 0 20.3848 137.087 4 68 979 20.5774 137.308 TC 62 20.6352 137.271 2 62 20.5774 137.308 62 988 180 9 283
1949192N19142 1949 42 WP MM FAYE 1949-07-13 00:00:00 TS 20.6600 136.800 main 1301 1268 O_O______OOO__ jtwc_wp WP041949 20.7000 136.800 70 1 20.5000 136.800 4 68 978 20.7000 136.800 TC 70 20.7000 136.800 3 70 20.7000 136.800 70 983 180 9 286
1949192N19142 1949 42 WP MM FAYE 1949-07-13 03:00:00 TS 20.8051 136.314 main 1268 1231 P_P______PPP__ WP041949 20.8500 136.285 75 1 20.6926 136.380 4 72 977 20.8500 136.285 TC 75 20.7828 136.334 3 72 20.8500 136.285 75 979 210 10 288
1949192N19142 1949 42 WP MM FAYE 1949-07-13 06:00:00 TS 20.9579 135.835 main 1227 1200 O_O______OPO__ jtwc_wp WP041949 21.0000 135.800 80 1 20.9000 135.900 4 77 976 21.0000 135.800 TC 80 20.8896 135.877 3 75 21.0000 135.800 80 976 240 9 287
1949192N19142 1949 42 WP MM FAYE 1949-07-13 09:00:00 TS 21.0646 135.411 main 1200 1175 P_P______PPP__ WP041949 21.0847 135.392 80 1 21.0424 135.450 4 77 975 21.0847 135.392 TC 80 21.0266 135.431 3 77 21.0847 135.392 80 974 240 8 287
1949192N19142 1949 42 WP MM FAYE 1949-07-13 12:00:00 TS 21.2000 135.000 main 1175 1140 O_O______OOO__ jtwc_wp WP041949 21.2000 135.000 80 1 21.2000 135.000 4 77 974 21.2000 135.000 TC 80 21.2000 135.000 4 80 21.2000 135.000 80 972 240 9 294
1949192N19142 1949 42 WP MM FAYE 1949-07-13 15:00:00 TS 21.4255 134.549 main 1136 1092 P_P______PPP__ WP041949 21.4276 134.543 80 1 21.4349 134.543 4 77 973 21.4276 134.543 TC 80 21.4097 134.574 4 80 21.4276 134.543 80 971 270 10 301
1949192N19142 1949 42 WP MM FAYE 1949-07-13 18:00:00 TS 21.6909 134.113 main 1092 1061 O_O______OPO__ jtwc_wp WP041949 21.7000 134.100 80 1 21.7000 134.100 4 77 972 21.7000 134.100 TC 80 21.6547 134.163 4 80 21.7000 134.100 80 970 300 9 304
1949192N19142 1949 42 WP MM FAYE 1949-07-13 21:00:00 TS 21.9308 133.733 main 1059 1018 P_P______PPP__ WP041949 21.9273 133.742 80 1 21.9500 133.670 4 77 971 21.9273 133.742 TC 80 21.9223 133.770 4 80 21.9273 133.742 80 968 300 9 307
1949192N19142 1949 42 WP MM FAYE 1949-07-14 00:00:00 TS 22.2000 133.380 main 1018 976 O_O______OOO__ jtwc_wp WP041949 22.2000 133.400 80 1 22.2000 133.300 4 77 971 22.2000 133.400 TC 80 22.2000 133.400 4 80 22.2000 133.400 80 967 300 9 313
1949192N19142 1949 42 WP MM FAYE 1949-07-14 03:00:00 TS 22.5501 133.009 main 965 925 P_P______PPP__ WP041949 22.6151 132.985 80 1 22.4498 133.042 4 77 970 22.6151 132.985 TC 80 22.4553 133.045 4 80 22.6151 132.985 80 966 300 10 316
1949192N19142 1949 42 WP MM FAYE 1949-07-14 06:00:00 TS 22.8839 132.662 main 925 898 O_O______OPO__ jtwc_wp WP041949 23.0000 132.600 80 1 22.7000 132.800 4 77 970 23.0000 132.600 TC 80 22.7196 132.712 4 80 23.0000 132.600 80 965 300 8 312
1949192N19142 1949 42 WP MM FAYE 1949-07-14 09:00:00 TS 23.0827 132.370 main 898 870 P_P______PPP__ WP041949 23.1573 132.327 80 1 22.9425 132.472 4 77 969 23.1573 132.327 TC 80 22.9991 132.398 4 80 23.1573 132.327 80 963 330 7 307
1949192N19142 1949 42 WP MM FAYE 1949-07-14 12:00:00 TS 23.2800 132.100 main 870 833 O_O______OOO__ jtwc_wp WP041949 23.3000 132.100 80 1 23.2000 132.100 4 77 969 23.3000 132.100 TC 80 23.3000 132.100 4 80 23.3000 132.100 80 962 360 7 315
1949192N19142 1949 42 WP MM FAYE 1949-07-14 15:00:00 TS 23.5961 131.812 main 833 796 P_P______PPP__ WP041949 23.6199 131.857 85 2 23.4926 131.685 4 77 969 23.6199 131.857 TC 85 23.6283 131.802 4 82 23.6199 131.857 85 960 360 9 322
1949192N19142 1949 42 WP MM FAYE 1949-07-14 18:00:00 TS 23.9555 131.524 main 785 750 O_O______OPO__ jtwc_wp WP041949 24.0000 131.600 90 2 23.8000 131.300 4 77 969 24.0000 131.600 TC 90 23.9773 131.520 4 85 24.0000 131.600 90 959 360 9 323
1949192N19142 1949 42 WP MM FAYE 1949-07-14 21:00:00 TS 24.2960 131.234 main 749 715 P_P______PPP__ WP041949 24.3500 131.300 90 2 24.0924 131.020 4 77 968 24.3500 131.300 TC 90 24.3377 131.252 4 87 24.3500 131.300 90 955 330 9 323
1949192N19142 1949 42 WP MM FAYE 1949-07-15 00:00:00 TS 24.6400 130.960 main 715 669 O_O______OOO__ jtwc_wp WP041949 24.7000 131.000 90 2 24.4000 130.800 4 77 968 24.7000 131.000 TC 90 24.7000 131.000 4 90 24.7000 131.000 90 952 300 8 325
1949192N19142 1949 42 WP MM FAYE 1949-07-15 03:00:00 TS 24.9860 130.705 main 669 636 P_P______PPP__ WP041949 25.0500 130.735 90 2 24.7425 130.585 4 77 967 25.0500 130.735 TC 90 25.0378 130.736 4 90 25.0500 130.735 90 947 300 8 328
1949192N19142 1949 42 WP MM FAYE 1949-07-15 06:00:00 TS 25.3355 130.478 main 636 592 O_O______OPO__ jtwc_wp WP041949 25.4000 130.500 90 2 25.1000 130.400 4 77 967 25.4000 130.500 TC 90 25.3775 130.490 4 90 25.4000 130.500 90 943 300 8 330
1949192N19142 1949 42 WP MM FAYE 1949-07-15 09:00:00 TS 25.6767 130.270 main 592 561 P_P______PPP__ WP041949 25.7350 130.277 90 2 25.4500 130.242 4 82 966 25.7350 130.277 TC 90 25.7285 130.274 4 90 25.7350 130.277 90 942 300 8 334
1949192N19142 1949 42 WP MM FAYE 1949-07-15 12:00:00 TS 26.0400 130.100 main 561 518 O_O______OOO__ jtwc_wp WP041949 26.1000 130.100 90 2 25.8000 130.100 5 87 966 26.1000 130.100 TC 90 26.1000 130.100 4 90 26.1000 130.100 90 942 300 8 341
1949192N19142 1949 42 WP MM FAYE 1949-07-15 15:00:00 TS 26.4587 129.969 main 506 464 P_P______PPP__ WP041949 26.5425 129.977 90 2 26.1425 129.942 5 87 965 26.5425 129.977 TC 90 26.5235 129.969 4 90 26.5425 129.977 90 943 270 9 347
1949192N19142 1949 42 WP MM FAYE 1949-07-15 18:00:00 TS 26.8930 129.876 main 464 422 O_O______OPO__ jtwc_wp WP041949 27.0000 129.900 90 2 26.5000 129.800 5 87 965 27.0000 129.900 TC 90 26.9648 129.882 4 90 27.0000 129.900 90 944 240 9 350
1949192N19142 1949 42 WP MM FAYE 1949-07-15 21:00:00 TS 27.3117 129.808 main 422 378 P_P______PPP__ WP041949 27.4225 129.842 90 2 26.8925 129.685 5 87 965 27.4225 129.842 TC 90 27.3986 129.829 4 90 27.4225 129.842 90 944 210 8 353
1949192N19142 1949 42 WP MM FAYE 1949-07-16 00:00:00 TS 27.7000 129.760 main 378 348 O_O______OOO__ jtwc_wp WP041949 27.8000 129.800 90 2 27.3000 129.600 5 87 966 27.8000 129.800 TC 90 27.8000 129.800 4 90 27.8000 129.800 90 945 180 7 353
1949192N19142 1949 42 WP MM FAYE 1949-07-16 03:00:00 TS 28.0297 129.704 main 348 316 P_P______PPP__ WP041949 28.1150 129.735 90 2 27.7000 129.542 5 82 966 28.1150 129.735 TC 90 28.1034 129.770 4 90 28.1150 129.735 90 946 210 6 353
1949192N19142 1949 42 WP MM FAYE 1949-07-16 06:00:00 TS 28.3355 129.673 main 316 284 O_O______OPO__ jtwc_wp WP041949 28.4000 129.700 90 2 28.1000 129.500 4 77 967 28.4000 129.700 TC 90 28.3775 129.762 4 90 28.4000 129.700 90 947 240 6 358
1949192N19142 1949 42 WP MM FAYE 1949-07-16 09:00:00 TS 28.6331 129.686 main 284 243 P_P______PPP__ WP041949 28.6700 129.735 90 2 28.4925 129.450 4 77 967 28.6700 129.735 TC 90 28.6628 129.773 4 90 28.6700 129.735 90 948 210 6 3
1949192N19142 1949 42 WP MM FAYE 1949-07-16 12:00:00 TS 28.9800 129.720 main 243 202 O_O______OOO__ jtwc_wp WP041949 29.0000 129.800 90 2 28.9000 129.400 4 77 968 29.0000 129.800 TC 90 29.0000 129.800 4 90 29.0000 129.800 90 950 180 8 4
1949192N19142 1949 42 WP MM FAYE 1949-07-16 15:00:00 TS 29.4416 129.746 main 202 149 P_P______PPP__ WP041949 29.4700 129.850 90 2 29.3350 129.343 4 77 969 29.4700 129.850 TC 90 29.4628 129.839 4 86 29.4700 129.850 90 952 180 10 3
1949192N19142 1949 42 WP MM FAYE 1949-07-16 18:00:00 TS 29.9555 129.778 main 139 97 O_O______OPO__ jtwc_wp WP041949 30.0000 129.900 90 2 29.8000 129.300 4 77 971 30.0000 129.900 TC 90 29.9776 129.892 4 82 30.0000 129.900 90 954 180 10 4
1949192N19142 1949 42 WP MM FAYE 1949-07-16 21:00:00 TS 30.4682 129.821 main 86 43 P_P______PPP__ WP041949 30.5150 129.957 82 1 30.2925 129.285 4 72 973 30.5150 129.957 TC 82 30.5035 129.949 4 78 30.5150 129.957 82 956 180 10 4
1949192N19142 1949 42 WP MM FAYE 1949-07-17 00:00:00 TS 30.9600 129.860 main 36 28 O_O______OOO__ jtwc_wp WP041949 31.0000 130.000 75 1 30.8000 129.300 4 68 975 31.0000 130.000 TC 75 31.0000 130.000 4 75 31.0000 130.000 75 959 180 9 2
1949192N19142 1949 42 WP MM FAYE 1949-07-17 03:00:00 TS 31.3988 129.874 main 30 28 P_P______PPP__ WP041949 31.4225 130.000 72 1 31.3075 129.342 4 63 978 31.4225 130.000 TC 72 31.4190 130.029 4 72 31.4225 130.000 72 961 180 8 0
1949192N19142 1949 42 WP MM FAYE 1949-07-17 06:00:00 TS 31.8005 129.890 main 28 28 O_O______OPO__ jtwc_wp WP041949 31.8000 130.000 70 1 31.8000 129.400 3 58 981 31.8000 130.000 TC 70 31.8024 130.051 4 70 31.8000 130.000 70 963 180 8 3
1949192N19142 1949 42 WP MM FAYE 1949-07-17 09:00:00 TS 32.1839 129.927 main 35 21 P_P______PPP__ WP041949 32.1650 130.042 67 1 32.2650 129.435 3 58 983 32.1650 130.042 TC 67 32.1596 130.072 4 67 32.1650 130.042 67 965 180 7 6
1949192N19142 1949 42 WP MM FAYE 1949-07-17 12:00:00 TS 32.5400 129.980 main 21 0 O_O______OOO__ jtwc_wp WP041949 32.5000 130.100 65 1 32.7000 129.500 3 58 986 32.5000 130.100 TC 65 32.5000 130.100 4 65 32.5000 130.100 65 968 180 7 8
1949192N19142 1949 42 WP MM FAYE 1949-07-17 15:00:00 TS 32.8662 130.045 main 0 0 P_P______PPP__ WP041949 32.8000 130.150 57 0 33.1000 129.635 3 53 989 32.8000 130.150 TC 57 32.8312 130.139 4 60 32.8000 130.150 57 972 180 7 10
1949192N19142 1949 42 WP MM FAYE 1949-07-17 18:00:00 TS 33.1900 130.117 main 0 0 O_O______OPO__ jtwc_wp WP041949 33.1000 130.200 50 0 33.5000 129.800 3 48 992 33.1000 130.200 TC 50 33.1500 130.185 4 55 33.1000 130.200 50 976 180 7 9
1949192N19142 1949 42 WP MM FAYE 1949-07-17 21:00:00 TS 33.5447 130.182 main 0 0 P_P______PPP__ WP041949 33.4425 130.250 47 0 33.9273 129.921 3 43 994 33.4425 130.250 TC 47 33.4687 130.239 4 50 33.4425 130.250 47 979 150 7 9
1949192N19142 1949 42 WP MM FAYE 1949-07-18 00:00:00 TS 33.9200 130.260 main 21 21 O_O______OOO__ jtwc_wp WP041949 33.8000 130.300 45 0 34.4000 130.100 2 38 996 33.8000 130.300 TC 45 33.8000 130.300 2 45 33.8000 130.300 45 982 120 8 12
1949192N19142 1949 42 WP MM FAYE 1949-07-18 03:00:00 TS 34.3002 130.366 main 45 45 P_P______PPP__ WP041949 34.1425 130.343 45 0 34.9202 130.435 2 33 997 34.1425 130.343 TC 45 34.1532 130.368 2 43 34.1425 130.343 45 984 120 8 13
1949192N19142 1949 42 WP MM FAYE 1949-07-18 06:00:00 TS 34.7264 130.496 main 57 57 O_O______OPO__ jtwc_wp WP041949 34.5000 130.400 45 0 35.5000 130.800 1 29 998 34.5000 130.400 TC 45 34.5251 130.442 2 42 34.5000 130.400 45 986 120 9 13
1949192N19142 1949 42 WP MM FAYE 1949-07-18 09:00:00 TS 35.2029 130.621 main 103 103 P_P______PPP__ WP041949 34.9000 130.478 42 0 36.1120 131.022 1 29 999 34.9000 130.478 TC 42 34.9094 130.520 2 41 34.8900 130.490 42 987 120 10 14
1949192N19142 1949 42 WP MM FAYE 1949-07-18 12:00:00 TS 35.7286 130.800 main 112 110 O_O______OOO__ jtwc_wp WP041949 35.3000 130.600 40 0 36.8000 131.300 1 29 1000 35.3000 130.600 TC 40 35.3000 130.600 2 40 35.3000 130.600 40 989 120 11 20
1949192N19142 1949 42 WP MM FAYE 1949-07-18 15:00:00 TS 36.2774 131.111 main 138 138 P_P______P____ WP041949 35.6350 130.778 40 0 37.5623 131.776 1 1001 35.6350 130.778 TC 40 2 12 27
1949192N19142 1949 42 WP MM FAYE 1949-07-18 18:00:00 TS 36.8000 131.467 main 178 178 O_O______O____ jtwc_wp WP041949 36.0000 131.000 40 0 38.4000 132.400 0 1002 36.0000 131.000 TC 40 2 13 27
1949192N19142 1949 42 WP MM FAYE 1949-07-18 21:00:00 TS 37.4281 131.836 main 214 214 P_P______P____ WP041949 36.4767 131.169 37 0 39.3309 133.170 0 1002 36.4767 131.169 TC 37 2 14 28
1949192N19142 1949 42 WP MM FAYE 1949-07-19 00:00:00 TS 38.0667 132.300 main 277 277 O_O______O____ jtwc_wp WP041949 37.0000 131.500 35 0 40.2000 133.900 0 1002 37.0000 131.500 TC 35 15 35
1949192N19142 1949 42 WP MM FAYE 1949-07-19 03:00:00 TS 38.6277 132.893 main 345 344 P_P______P____ WP041949 37.5094 132.149 32 -1 40.8643 134.382 0 1003 37.5094 132.149 TC 32 15 43
1949192N19142 1949 42 WP MM FAYE 1949-07-19 06:00:00 TS 39.1333 133.567 main 336 O_O______O____ jtwc_wp WP041949 38.0000 133.000 30 -1 41.4000 134.700 0 1004 38.0000 133.000 TC 30 15 46

デジタル台風データ・検索

IBTrACS Databaseについて

本データベースは、米国NOAAが公開する1842年以降の世界の熱帯低気圧のベストトラックデータアーカイブInternational Best Track Archive for Climate Stewardship (IBTrACS)を、ウェブで閲覧しやすい形式に変換したものです。

最終更新日:2021-10-21